sensor_id;sensor_type;location;lat;lon;timestamp;pressure;altitude;pressure_sealevel;temperature;humidity
10718;BME280;13513;42.700;23.124;2022-07-23T00:00:39;93245.12;;;22.28;51.66
10718;BME280;13513;42.700;23.124;2022-07-23T00:03:10;93243.52;;;22.18;51.82
10718;BME280;13513;42.700;23.124;2022-07-23T00:05:40;93243.14;;;22.22;51.76
10718;BME280;13513;42.700;23.124;2022-07-23T00:08:11;93242.41;;;22.19;52.01
10718;BME280;13513;42.700;23.124;2022-07-23T00:10:43;93240.91;;;22.24;52.07
10718;BME280;13513;42.700;23.124;2022-07-23T00:13:15;93246.11;;;22.32;51.61
10718;BME280;13513;42.700;23.124;2022-07-23T00:15:46;93247.77;;;22.30;51.79
10718;BME280;13513;42.700;23.124;2022-07-23T00:18:17;93243.67;;;22.22;51.87
10718;BME280;13513;42.700;23.124;2022-07-23T00:20:48;93248.83;;;22.21;51.95
10718;BME280;13513;42.700;23.124;2022-07-23T00:23:19;93248.83;;;22.21;51.87
10718;BME280;13513;42.700;23.124;2022-07-23T00:25:49;93247.95;;;22.23;51.58
10718;BME280;13513;42.700;23.124;2022-07-23T00:28:20;93257.02;;;22.16;51.81
10718;BME280;13513;42.700;23.124;2022-07-23T00:30:50;93257.32;;;22.14;51.98
10718;BME280;13513;42.700;23.124;2022-07-23T00:33:20;93260.36;;;22.02;52.10
10718;BME280;13513;42.700;23.124;2022-07-23T00:35:51;93252.66;;;21.98;52.39
10718;BME280;13513;42.700;23.124;2022-07-23T00:38:22;93254.24;;;21.88;52.12
10718;BME280;13513;42.700;23.124;2022-07-23T00:40:53;93249.19;;;21.62;52.98
10718;BME280;13513;42.700;23.124;2022-07-23T00:43:24;93254.52;;;21.64;53.54
10718;BME280;13513;42.700;23.124;2022-07-23T00:45:55;93257.94;;;21.67;53.46
10718;BME280;13513;42.700;23.124;2022-07-23T00:48:25;93249.83;;;21.59;53.42
10718;BME280;13513;42.700;23.124;2022-07-23T00:50:57;93251.65;;;21.61;53.52
10718;BME280;13513;42.700;23.124;2022-07-23T00:53:26;93252.19;;;21.60;53.97
10718;BME280;13513;42.700;23.124;2022-07-23T00:55:57;93249.27;;;21.59;53.86
10718;BME280;13513;42.700;23.124;2022-07-23T00:58:27;93246.20;;;21.63;53.28
10718;BME280;13513;42.700;23.124;2022-07-23T01:00:59;93247.51;;;21.55;53.46
10718;BME280;13513;42.700;23.124;2022-07-23T01:03:29;93248.58;;;21.32;54.03
10718;BME280;13513;42.700;23.124;2022-07-23T01:06:00;93247.87;;;21.15;54.91
10718;BME280;13513;42.700;23.124;2022-07-23T01:08:31;93250.59;;;21.02;55.58
10718;BME280;13513;42.700;23.124;2022-07-23T01:11:02;93247.58;;;20.92;56.64
10718;BME280;13513;42.700;23.124;2022-07-23T01:13:32;93249.55;;;20.73;57.47
10718;BME280;13513;42.700;23.124;2022-07-23T01:16:03;93254.48;;;20.55;58.52
10718;BME280;13513;42.700;23.124;2022-07-23T01:18:36;93250.69;;;20.43;59.35
10718;BME280;13513;42.700;23.124;2022-07-23T01:21:07;93251.74;;;20.44;59.43
10718;BME280;13513;42.700;23.124;2022-07-23T01:23:39;93252.49;;;20.47;59.92
10718;BME280;13513;42.700;23.124;2022-07-23T01:26:09;93255.93;;;20.50;59.77
10718;BME280;13513;42.700;23.124;2022-07-23T01:28:40;93249.05;;;20.44;60.55
10718;BME280;13513;42.700;23.124;2022-07-23T01:31:11;93249.33;;;20.45;61.15
10718;BME280;13513;42.700;23.124;2022-07-23T01:33:42;93246.83;;;20.35;61.16
10718;BME280;13513;42.700;23.124;2022-07-23T01:36:13;93249.05;;;20.31;60.66
10718;BME280;13513;42.700;23.124;2022-07-23T01:38:44;93245.64;;;20.28;61.33
10718;BME280;13513;42.700;23.124;2022-07-23T01:41:15;93248.27;;;20.30;61.17
10718;BME280;13513;42.700;23.124;2022-07-23T01:43:45;93245.08;;;20.28;60.63
10718;BME280;13513;42.700;23.124;2022-07-23T01:46:17;93249.10;;;20.28;60.57
10718;BME280;13513;42.700;23.124;2022-07-23T01:48:48;93245.59;;;20.44;60.13
10718;BME280;13513;42.700;23.124;2022-07-23T01:51:20;93240.76;;;20.43;60.42
10718;BME280;13513;42.700;23.124;2022-07-23T01:53:52;93246.66;;;20.43;60.65
10718;BME280;13513;42.700;23.124;2022-07-23T01:56:22;93235.98;;;20.54;60.20
10718;BME280;13513;42.700;23.124;2022-07-23T01:58:53;93242.86;;;20.46;60.66
10718;BME280;13513;42.700;23.124;2022-07-23T02:01:24;93247.81;;;20.39;61.20
10718;BME280;13513;42.700;23.124;2022-07-23T02:03:55;93245.97;;;20.37;60.25
10718;BME280;13513;42.700;23.124;2022-07-23T02:06:26;93251.09;;;20.50;59.59
10718;BME280;13513;42.700;23.124;2022-07-23T02:08:57;93246.59;;;20.61;59.30
10718;BME280;13513;42.700;23.124;2022-07-23T02:11:27;93242.50;;;20.64;59.29
10718;BME280;13513;42.700;23.124;2022-07-23T02:13:57;93243.62;;;20.60;59.83
10718;BME280;13513;42.700;23.124;2022-07-23T02:16:28;93242.05;;;20.59;60.89
10718;BME280;13513;42.700;23.124;2022-07-23T02:18:58;93242.64;;;20.56;60.65
10718;BME280;13513;42.700;23.124;2022-07-23T02:21:32;93243.50;;;20.54;60.24
10718;BME280;13513;42.700;23.124;2022-07-23T02:24:04;93249.67;;;20.55;60.43
10718;BME280;13513;42.700;23.124;2022-07-23T02:26:35;93238.83;;;20.60;59.63
10718;BME280;13513;42.700;23.124;2022-07-23T02:29:05;93240.30;;;20.52;60.41
10718;BME280;13513;42.700;23.124;2022-07-23T02:31:37;93241.45;;;20.35;61.40
10718;BME280;13513;42.700;23.124;2022-07-23T02:34:07;93241.27;;;20.45;60.31
10718;BME280;13513;42.700;23.124;2022-07-23T02:36:39;93243.20;;;20.42;60.74
10718;BME280;13513;42.700;23.124;2022-07-23T02:39:10;93248.17;;;20.35;61.88
10718;BME280;13513;42.700;23.124;2022-07-23T02:41:41;93245.48;;;20.35;62.13
10718;BME280;13513;42.700;23.124;2022-07-23T02:44:11;93243.89;;;20.21;62.94
10718;BME280;13513;42.700;23.124;2022-07-23T02:46:42;93249.95;;;19.94;63.61
10718;BME280;13513;42.700;23.124;2022-07-23T02:49:12;93249.88;;;19.83;63.86
10718;BME280;13513;42.700;23.124;2022-07-23T02:51:43;93251.55;;;19.82;64.50
10718;BME280;13513;42.700;23.124;2022-07-23T02:54:14;93257.86;;;19.88;63.88
10718;BME280;13513;42.700;23.124;2022-07-23T02:56:44;93253.50;;;19.92;63.66
10718;BME280;13513;42.700;23.124;2022-07-23T02:59:15;93252.37;;;19.80;63.32
10718;BME280;13513;42.700;23.124;2022-07-23T03:01:47;93255.33;;;19.94;63.27
10718;BME280;13513;42.700;23.124;2022-07-23T03:04:17;93260.86;;;20.00;62.68
10718;BME280;13513;42.700;23.124;2022-07-23T03:06:48;93262.20;;;20.00;62.72
10718;BME280;13513;42.700;23.124;2022-07-23T03:09:18;93271.25;;;20.04;62.13
10718;BME280;13513;42.700;23.124;2022-07-23T03:11:49;93273.84;;;20.09;62.47
10718;BME280;13513;42.700;23.124;2022-07-23T03:14:20;93274.09;;;20.13;62.84
10718;BME280;13513;42.700;23.124;2022-07-23T03:16:51;93279.19;;;20.12;62.18
10718;BME280;13513;42.700;23.124;2022-07-23T03:19:22;93279.46;;;20.13;61.60
10718;BME280;13513;42.700;23.124;2022-07-23T03:21:52;93282.05;;;20.18;58.79
10718;BME280;13513;42.700;23.124;2022-07-23T03:24:23;93286.31;;;20.19;58.33
10718;BME280;13513;42.700;23.124;2022-07-23T03:26:55;93284.80;;;20.29;57.81
10718;BME280;13513;42.700;23.124;2022-07-23T03:29:26;93283.23;;;20.41;55.33
10718;BME280;13513;42.700;23.124;2022-07-23T03:31:56;93287.80;;;20.41;54.95
10718;BME280;13513;42.700;23.124;2022-07-23T03:34:27;93289.55;;;20.48;54.10
10718;BME280;13513;42.700;23.124;2022-07-23T03:36:57;93292.98;;;20.51;54.07
10718;BME280;13513;42.700;23.124;2022-07-23T03:39:28;93291.83;;;20.68;53.04
10718;BME280;13513;42.700;23.124;2022-07-23T03:42:00;93296.32;;;20.72;51.60
10718;BME280;13513;42.700;23.124;2022-07-23T03:44:31;93291.66;;;20.89;53.28
10718;BME280;13513;42.700;23.124;2022-07-23T03:47:02;93285.59;;;20.99;51.08
10718;BME280;13513;42.700;23.124;2022-07-23T03:49:34;93282.90;;;20.99;52.12
10718;BME280;13513;42.700;23.124;2022-07-23T03:52:05;93282.61;;;21.12;52.33
10718;BME280;13513;42.700;23.124;2022-07-23T03:54:36;93280.70;;;21.26;52.48
10718;BME280;13513;42.700;23.124;2022-07-23T03:57:06;93280.90;;;21.40;52.56
10718;BME280;13513;42.700;23.124;2022-07-23T03:59:37;93287.94;;;21.50;50.95
10718;BME280;13513;42.700;23.124;2022-07-23T04:02:08;93283.48;;;21.56;50.58
10718;BME280;13513;42.700;23.124;2022-07-23T04:04:39;93285.63;;;21.57;49.36
10718;BME280;13513;42.700;23.124;2022-07-23T04:07:10;93284.00;;;21.69;49.04
10718;BME280;13513;42.700;23.124;2022-07-23T04:09:41;93283.91;;;21.85;49.73
10718;BME280;13513;42.700;23.124;2022-07-23T04:12:12;93284.45;;;22.07;49.10
10718;BME280;13513;42.700;23.124;2022-07-23T04:14:42;93280.69;;;22.27;49.36
10718;BME280;13513;42.700;23.124;2022-07-23T04:17:13;93280.84;;;22.42;50.02
10718;BME280;13513;42.700;23.124;2022-07-23T04:19:45;93285.35;;;22.55;47.87
10718;BME280;13513;42.700;23.124;2022-07-23T04:22:15;93285.78;;;22.59;47.82
10718;BME280;13513;42.700;23.124;2022-07-23T04:24:46;93292.44;;;22.62;48.44
10718;BME280;13513;42.700;23.124;2022-07-23T04:27:16;93294.75;;;22.66;48.45
10718;BME280;13513;42.700;23.124;2022-07-23T04:29:46;93291.87;;;22.73;47.70
10718;BME280;13513;42.700;23.124;2022-07-23T04:32:17;93298.69;;;22.79;47.62
10718;BME280;13513;42.700;23.124;2022-07-23T04:34:48;93297.89;;;22.98;48.54
10718;BME280;13513;42.700;23.124;2022-07-23T04:37:19;93294.14;;;23.16;48.48
10718;BME280;13513;42.700;23.124;2022-07-23T04:39:50;93299.52;;;23.45;48.01
10718;BME280;13513;42.700;23.124;2022-07-23T04:42:21;93297.25;;;23.75;49.00
10718;BME280;13513;42.700;23.124;2022-07-23T04:44:54;93296.09;;;23.95;49.06
10718;BME280;13513;42.700;23.124;2022-07-23T04:47:25;93300.50;;;24.25;48.21
10718;BME280;13513;42.700;23.124;2022-07-23T04:49:56;93295.37;;;24.81;47.40
10718;BME280;13513;42.700;23.124;2022-07-23T04:52:26;93296.98;;;25.25;46.84
10718;BME280;13513;42.700;23.124;2022-07-23T04:54:58;93294.88;;;25.80;45.29
10718;BME280;13513;42.700;23.124;2022-07-23T04:57:28;93290.38;;;26.25;44.30
10718;BME280;13513;42.700;23.124;2022-07-23T04:59:59;93293.48;;;26.81;43.60
10718;BME280;13513;42.700;23.124;2022-07-23T05:02:30;93293.39;;;27.13;43.25
10718;BME280;13513;42.700;23.124;2022-07-23T05:05:00;93298.14;;;27.82;41.61
10718;BME280;13513;42.700;23.124;2022-07-23T05:07:31;93296.57;;;28.48;40.69
10718;BME280;13513;42.700;23.124;2022-07-23T05:10:02;93295.39;;;28.92;39.81
10718;BME280;13513;42.700;23.124;2022-07-23T05:12:32;93291.25;;;29.66;38.00
10718;BME280;13513;42.700;23.124;2022-07-23T05:15:02;93294.50;;;30.16;37.83
10718;BME280;13513;42.700;23.124;2022-07-23T05:17:33;93300.51;;;30.82;36.96
10718;BME280;13513;42.700;23.124;2022-07-23T05:20:04;93296.63;;;31.38;35.94
10718;BME280;13513;42.700;23.124;2022-07-23T05:22:36;93299.96;;;31.63;35.57
10718;BME280;13513;42.700;23.124;2022-07-23T05:25:07;93307.45;;;32.05;34.50
10718;BME280;13513;42.700;23.124;2022-07-23T05:27:37;93307.15;;;32.27;33.75
10718;BME280;13513;42.700;23.124;2022-07-23T05:30:10;93306.95;;;32.72;34.12
10718;BME280;13513;42.700;23.124;2022-07-23T05:32:40;93312.59;;;32.23;33.93
10718;BME280;13513;42.700;23.124;2022-07-23T05:35:12;93312.59;;;32.23;33.93
10718;BME280;13513;42.700;23.124;2022-07-23T05:37:41;93309.63;;;31.80;34.75
10718;BME280;13513;42.700;23.124;2022-07-23T05:40:13;93314.08;;;32.63;34.35
10718;BME280;13513;42.700;23.124;2022-07-23T05:42:42;93314.08;;;32.63;34.35
10718;BME280;13513;42.700;23.124;2022-07-23T05:45:13;93316.94;;;33.27;31.84
10718;BME280;13513;42.700;23.124;2022-07-23T05:47:48;93321.22;;;33.41;32.40
10718;BME280;13513;42.700;23.124;2022-07-23T05:50:19;93316.32;;;33.64;31.56
10718;BME280;13513;42.700;23.124;2022-07-23T05:52:50;93310.92;;;33.78;31.42
10718;BME280;13513;42.700;23.124;2022-07-23T05:55:21;93310.74;;;33.81;31.38
10718;BME280;13513;42.700;23.124;2022-07-23T05:57:52;93311.55;;;34.05;30.71
10718;BME280;13513;42.700;23.124;2022-07-23T06:00:23;93318.45;;;34.12;31.34
10718;BME280;13513;42.700;23.124;2022-07-23T06:02:53;93307.42;;;34.32;30.73
10718;BME280;13513;42.700;23.124;2022-07-23T06:05:24;93306.92;;;34.53;30.91
10718;BME280;13513;42.700;23.124;2022-07-23T06:07:55;93307.70;;;34.54;31.59
10718;BME280;13513;42.700;23.124;2022-07-23T06:10:28;93307.70;;;34.54;29.88
10718;BME280;13513;42.700;23.124;2022-07-23T06:12:59;93300.73;;;34.77;30.79
10718;BME280;13513;42.700;23.124;2022-07-23T06:15:30;93307.75;;;35.16;30.73
10718;BME280;13513;42.700;23.124;2022-07-23T06:18:01;93296.78;;;35.40;30.24
10718;BME280;13513;42.700;23.124;2022-07-23T06:20:32;93305.45;;;35.39;29.38
10718;BME280;13513;42.700;23.124;2022-07-23T06:23:03;93305.97;;;35.24;31.34
10718;BME280;13513;42.700;23.124;2022-07-23T06:25:34;93303.58;;;35.05;31.18
10718;BME280;13513;42.700;23.124;2022-07-23T06:28:05;93302.25;;;35.19;30.13
10718;BME280;13513;42.700;23.124;2022-07-23T06:30:36;93305.92;;;34.96;29.48
10718;BME280;13513;42.700;23.124;2022-07-23T06:33:06;93300.05;;;34.19;29.28
10718;BME280;13513;42.700;23.124;2022-07-23T06:35:38;93301.47;;;33.96;32.41
10718;BME280;13513;42.700;23.124;2022-07-23T06:38:10;93305.09;;;33.56;33.67
10718;BME280;13513;42.700;23.124;2022-07-23T06:40:41;93300.66;;;33.21;35.18
10718;BME280;13513;42.700;23.124;2022-07-23T06:43:12;93303.30;;;32.61;35.52
10718;BME280;13513;42.700;23.124;2022-07-23T06:45:42;93304.66;;;32.94;35.28
10718;BME280;13513;42.700;23.124;2022-07-23T06:48:13;93304.02;;;32.54;36.73
10718;BME280;13513;42.700;23.124;2022-07-23T06:50:43;93307.09;;;32.82;36.34
10718;BME280;13513;42.700;23.124;2022-07-23T06:53:14;93300.14;;;33.08;34.41
10718;BME280;13513;42.700;23.124;2022-07-23T06:55:45;93305.16;;;32.70;35.35
10718;BME280;13513;42.700;23.124;2022-07-23T06:58:16;93310.06;;;32.54;36.44
10718;BME280;13513;42.700;23.124;2022-07-23T07:00:47;93303.57;;;32.36;35.95
10718;BME280;13513;42.700;23.124;2022-07-23T07:03:18;93301.75;;;32.17;36.52
10718;BME280;13513;42.700;23.124;2022-07-23T07:05:48;93299.53;;;32.39;35.32
10718;BME280;13513;42.700;23.124;2022-07-23T07:08:19;93301.84;;;32.24;37.63
10718;BME280;13513;42.700;23.124;2022-07-23T07:10:49;93310.80;;;32.67;35.24
10718;BME280;13513;42.700;23.124;2022-07-23T07:13:20;93309.23;;;32.66;36.11
10718;BME280;13513;42.700;23.124;2022-07-23T07:15:53;93301.90;;;32.90;35.68
10718;BME280;13513;42.700;23.124;2022-07-23T07:18:24;93304.59;;;33.23;33.91
10718;BME280;13513;42.700;23.124;2022-07-23T07:20:56;93304.91;;;33.18;34.63
10718;BME280;13513;42.700;23.124;2022-07-23T07:23:27;93299.20;;;33.58;34.21
10718;BME280;13513;42.700;23.124;2022-07-23T07:25:58;93298.00;;;33.52;34.24
10718;BME280;13513;42.700;23.124;2022-07-23T07:28:29;93297.12;;;33.20;34.44
10718;BME280;13513;42.700;23.124;2022-07-23T07:31:01;93293.56;;;33.16;34.27
10718;BME280;13513;42.700;23.124;2022-07-23T07:33:32;93290.97;;;33.54;35.68
10718;BME280;13513;42.700;23.124;2022-07-23T07:36:04;93292.23;;;33.67;33.96
10718;BME280;13513;42.700;23.124;2022-07-23T07:38:36;93287.80;;;33.76;34.58
10718;BME280;13513;42.700;23.124;2022-07-23T07:41:07;93276.90;;;33.59;33.89
10718;BME280;13513;42.700;23.124;2022-07-23T07:43:38;93283.21;;;34.21;33.69
10718;BME280;13513;42.700;23.124;2022-07-23T07:46:08;93289.08;;;34.16;32.70
10718;BME280;13513;42.700;23.124;2022-07-23T07:48:40;93281.42;;;34.19;33.53
10718;BME280;13513;42.700;23.124;2022-07-23T07:51:10;93277.03;;;34.34;36.73
10718;BME280;13513;42.700;23.124;2022-07-23T07:53:40;93277.06;;;34.11;33.92
10718;BME280;13513;42.700;23.124;2022-07-23T07:56:11;93275.84;;;34.01;35.52
10718;BME280;13513;42.700;23.124;2022-07-23T07:58:42;93282.30;;;34.78;33.72
10718;BME280;13513;42.700;23.124;2022-07-23T08:01:12;93290.30;;;34.25;33.11
10718;BME280;13513;42.700;23.124;2022-07-23T08:03:43;93282.91;;;34.81;32.83
10718;BME280;13513;42.700;23.124;2022-07-23T08:06:14;93282.58;;;34.93;32.00
10718;BME280;13513;42.700;23.124;2022-07-23T08:08:45;93285.68;;;34.88;32.41
10718;BME280;13513;42.700;23.124;2022-07-23T08:11:16;93282.83;;;35.25;32.16
10718;BME280;13513;42.700;23.124;2022-07-23T08:13:46;93277.95;;;35.88;31.04
10718;BME280;13513;42.700;23.124;2022-07-23T08:16:19;93275.98;;;35.95;30.34
10718;BME280;13513;42.700;23.124;2022-07-23T08:18:52;93276.59;;;36.66;30.92
10718;BME280;13513;42.700;23.124;2022-07-23T08:21:22;93280.11;;;37.46;29.81
10718;BME280;13513;42.700;23.124;2022-07-23T08:23:53;93279.78;;;37.88;28.23
10718;BME280;13513;42.700;23.124;2022-07-23T08:26:23;93278.70;;;37.97;28.68
10718;BME280;13513;42.700;23.124;2022-07-23T08:28:54;93280.23;;;38.23;29.65
10718;BME280;13513;42.700;23.124;2022-07-23T08:31:25;93277.95;;;37.71;28.04
10718;BME280;13513;42.700;23.124;2022-07-23T08:33:58;93275.02;;;37.05;30.39
10718;BME280;13513;42.700;23.124;2022-07-23T08:36:32;93274.08;;;37.00;29.11
10718;BME280;13513;42.700;23.124;2022-07-23T08:39:03;93276.03;;;36.99;29.23
10718;BME280;13513;42.700;23.124;2022-07-23T08:41:35;93269.51;;;37.05;29.57
10718;BME280;13513;42.700;23.124;2022-07-23T08:44:07;93267.98;;;36.54;30.25
10718;BME280;13513;42.700;23.124;2022-07-23T08:46:38;93269.23;;;36.17;31.50
10718;BME280;13513;42.700;23.124;2022-07-23T08:49:09;93268.32;;;37.38;29.71
10718;BME280;13513;42.700;23.124;2022-07-23T08:51:40;93270.31;;;37.85;27.96
10718;BME280;13513;42.700;23.124;2022-07-23T08:54:14;93268.59;;;37.54;29.61
10718;BME280;13513;42.700;23.124;2022-07-23T08:56:43;93268.95;;;38.26;27.62
10718;BME280;13513;42.700;23.124;2022-07-23T08:59:14;93271.03;;;38.55;25.99
10718;BME280;13513;42.700;23.124;2022-07-23T09:01:46;93267.23;;;39.47;27.39
10718;BME280;13513;42.700;23.124;2022-07-23T09:04:17;93262.64;;;40.33;24.52
10718;BME280;13513;42.700;23.124;2022-07-23T09:06:48;93268.33;;;41.51;24.38
10718;BME280;13513;42.700;23.124;2022-07-23T09:09:20;93269.95;;;41.13;21.97
10718;BME280;13513;42.700;23.124;2022-07-23T09:12:05;93275.64;;;38.47;23.08
10718;BME280;13513;42.700;23.124;2022-07-23T09:14:45;93268.70;;;38.84;22.22
10718;BME280;13513;42.700;23.124;2022-07-23T09:17:17;93268.57;;;39.89;22.56
10718;BME280;13513;42.700;23.124;2022-07-23T09:19:50;93274.77;;;40.20;20.50
10718;BME280;13513;42.700;23.124;2022-07-23T09:22:26;93270.05;;;41.10;21.51
10718;BME280;13513;42.700;23.124;2022-07-23T09:25:10;93268.69;;;40.48;21.18
10718;BME280;13513;42.700;23.124;2022-07-23T09:27:59;93266.35;;;39.66;23.57
10718;BME280;13513;42.700;23.124;2022-07-23T09:30:31;93270.23;;;38.36;24.13
10718;BME280;13513;42.700;23.124;2022-07-23T09:33:14;93271.47;;;37.40;21.72
10718;BME280;13513;42.700;23.124;2022-07-23T09:35:54;93266.95;;;36.63;22.24
10718;BME280;13513;42.700;23.124;2022-07-23T09:38:25;93256.66;;;36.77;25.89
10718;BME280;13513;42.700;23.124;2022-07-23T09:41:11;93259.88;;;36.62;24.59
10718;BME280;13513;42.700;23.124;2022-07-23T09:43:44;93247.87;;;35.75;24.57
10718;BME280;13513;42.700;23.124;2022-07-23T09:46:23;93251.72;;;34.86;25.79
10718;BME280;13513;42.700;23.124;2022-07-23T09:48:55;93246.47;;;35.19;26.48
10718;BME280;13513;42.700;23.124;2022-07-23T09:51:26;93247.09;;;35.25;24.48
10718;BME280;13513;42.700;23.124;2022-07-23T09:54:06;93248.28;;;35.49;22.11
10718;BME280;13513;42.700;23.124;2022-07-23T09:56:38;93243.55;;;35.63;24.39
10718;BME280;13513;42.700;23.124;2022-07-23T09:59:09;93242.77;;;35.84;24.82
10718;BME280;13513;42.700;23.124;2022-07-23T10:01:39;93245.75;;;35.36;21.59
10718;BME280;13513;42.700;23.124;2022-07-23T10:04:11;93239.45;;;35.35;23.91
10718;BME280;13513;42.700;23.124;2022-07-23T10:06:45;93234.90;;;35.09;26.28
10718;BME280;13513;42.700;23.124;2022-07-23T10:09:16;93240.01;;;35.10;25.01
10718;BME280;13513;42.700;23.124;2022-07-23T10:11:48;93231.92;;;34.97;26.07
10718;BME280;13513;42.700;23.124;2022-07-23T10:14:19;93232.91;;;34.88;24.06
10718;BME280;13513;42.700;23.124;2022-07-23T10:16:49;93228.58;;;34.94;27.22
10718;BME280;13513;42.700;23.124;2022-07-23T10:19:22;93231.87;;;34.80;24.83
10718;BME280;13513;42.700;23.124;2022-07-23T10:21:56;93225.65;;;35.04;26.12
10718;BME280;13513;42.700;23.124;2022-07-23T10:29:46;93223.48;;;34.86;26.82
10718;BME280;13513;42.700;23.124;2022-07-23T10:32:24;93218.69;;;34.69;24.29
10718;BME280;13513;42.700;23.124;2022-07-23T10:34:52;93227.70;;;34.62;25.74
10718;BME280;13513;42.700;23.124;2022-07-23T10:37:28;93227.17;;;34.25;24.19
10718;BME280;13513;42.700;23.124;2022-07-23T10:40:15;93224.17;;;34.55;22.83
10718;BME280;13513;42.700;23.124;2022-07-23T10:42:50;93217.69;;;34.57;23.11
10718;BME280;13513;42.700;23.124;2022-07-23T10:48:22;93207.98;;;35.01;25.17
10718;BME280;13513;42.700;23.124;2022-07-23T10:51:14;93204.30;;;35.38;25.60
10718;BME280;13513;42.700;23.124;2022-07-23T10:53:58;93200.94;;;35.60;24.82
10718;BME280;13513;42.700;23.124;2022-07-23T10:56:50;93195.42;;;35.74;24.66
10718;BME280;13513;42.700;23.124;2022-07-23T10:59:21;93197.05;;;35.29;24.66
10718;BME280;13513;42.700;23.124;2022-07-23T11:01:53;93198.80;;;35.31;23.51
10718;BME280;13513;42.700;23.124;2022-07-23T11:07:12;93186.81;;;35.51;24.70
10718;BME280;13513;42.700;23.124;2022-07-23T11:09:44;93185.56;;;35.94;25.37
10718;BME280;13513;42.700;23.124;2022-07-23T11:15:11;93182.12;;;36.69;24.79
10718;BME280;13513;42.700;23.124;2022-07-23T11:17:59;93183.20;;;37.11;23.73
10718;BME280;13513;42.700;23.124;2022-07-23T11:20:29;93182.47;;;37.33;22.46
10718;BME280;13513;42.700;23.124;2022-07-23T11:23:00;93176.49;;;37.41;21.99
10718;BME280;13513;42.700;23.124;2022-07-23T11:25:32;93177.30;;;37.38;21.07
10718;BME280;13513;42.700;23.124;2022-07-23T11:28:16;93171.98;;;37.17;20.52
10718;BME280;13513;42.700;23.124;2022-07-23T11:30:47;93172.58;;;36.44;22.09
10718;BME280;13513;42.700;23.124;2022-07-23T11:33:20;93168.75;;;36.21;23.56
10718;BME280;13513;42.700;23.124;2022-07-23T11:36:00;93165.88;;;35.99;22.22
10718;BME280;13513;42.700;23.124;2022-07-23T11:38:24;93159.25;;;35.72;22.28
10718;BME280;13513;42.700;23.124;2022-07-23T11:40:58;93157.72;;;35.57;22.38
10718;BME280;13513;42.700;23.124;2022-07-23T11:43:31;93157.91;;;35.68;21.55
10718;BME280;13513;42.700;23.124;2022-07-23T11:46:02;93152.78;;;35.74;22.51
10718;BME280;13513;42.700;23.124;2022-07-23T11:48:33;93153.94;;;35.87;23.35
10718;BME280;13513;42.700;23.124;2022-07-23T11:51:04;93148.37;;;36.04;25.35
10718;BME280;13513;42.700;23.124;2022-07-23T11:53:35;93142.35;;;35.87;23.80
10718;BME280;13513;42.700;23.124;2022-07-23T11:56:07;93149.08;;;36.19;22.18
10718;BME280;13513;42.700;23.124;2022-07-23T11:58:39;93150.48;;;36.15;22.15
10718;BME280;13513;42.700;23.124;2022-07-23T12:01:10;93154.06;;;36.09;20.54
10718;BME280;13513;42.700;23.124;2022-07-23T12:03:52;93142.44;;;35.38;21.54
10718;BME280;13513;42.700;23.124;2022-07-23T12:06:23;93143.43;;;35.33;21.13
10718;BME280;13513;42.700;23.124;2022-07-23T12:08:54;93138.69;;;35.51;22.26
10718;BME280;13513;42.700;23.124;2022-07-23T12:11:26;93140.39;;;35.81;23.96
10718;BME280;13513;42.700;23.124;2022-07-23T12:13:58;93141.83;;;36.24;22.67
10718;BME280;13513;42.700;23.124;2022-07-23T12:16:29;93141.37;;;36.69;21.96
10718;BME280;13513;42.700;23.124;2022-07-23T12:19:00;93141.23;;;36.93;20.10
10718;BME280;13513;42.700;23.124;2022-07-23T12:21:30;93138.92;;;37.10;20.64
10718;BME280;13513;42.700;23.124;2022-07-23T12:24:07;93131.80;;;37.13;21.18
10718;BME280;13513;42.700;23.124;2022-07-23T12:26:38;93132.42;;;37.34;21.02
10718;BME280;13513;42.700;23.124;2022-07-23T12:29:09;93125.98;;;37.04;21.09
10718;BME280;13513;42.700;23.124;2022-07-23T12:31:40;93130.36;;;36.65;20.07
10718;BME280;13513;42.700;23.124;2022-07-23T12:34:16;93127.90;;;36.52;21.42
10718;BME280;13513;42.700;23.124;2022-07-23T12:36:46;93122.64;;;36.39;20.11
10718;BME280;13513;42.700;23.124;2022-07-23T12:39:33;93123.75;;;36.12;19.16
10718;BME280;13513;42.700;23.124;2022-07-23T12:42:10;93126.14;;;36.10;19.14
10718;BME280;13513;42.700;23.124;2022-07-23T12:44:35;93115.06;;;36.24;21.80
10718;BME280;13513;42.700;23.124;2022-07-23T12:47:06;93111.23;;;36.44;21.10
10718;BME280;13513;42.700;23.124;2022-07-23T12:49:37;93111.33;;;36.59;20.92
10718;BME280;13513;42.700;23.124;2022-07-23T12:52:18;93117.10;;;36.46;20.15
10718;BME280;13513;42.700;23.124;2022-07-23T12:54:50;93107.16;;;36.66;20.80
10718;BME280;13513;42.700;23.124;2022-07-23T12:57:44;93103.58;;;36.40;19.43
10718;BME280;13513;42.700;23.124;2022-07-23T12:59:54;93101.98;;;36.03;20.63
10718;BME280;13513;42.700;23.124;2022-07-23T13:02:25;93102.84;;;35.75;19.88
10718;BME280;13513;42.700;23.124;2022-07-23T13:04:56;93096.23;;;35.55;21.26
10718;BME280;13513;42.700;23.124;2022-07-23T13:07:26;93095.82;;;35.64;22.21
10718;BME280;13513;42.700;23.124;2022-07-23T13:09:57;93097.95;;;35.75;22.61
10718;BME280;13513;42.700;23.124;2022-07-23T13:12:28;93099.09;;;35.88;20.32
10718;BME280;13513;42.700;23.124;2022-07-23T13:14:59;93101.68;;;35.80;19.83
10718;BME280;13513;42.700;23.124;2022-07-23T13:17:30;93102.22;;;35.97;19.59
10718;BME280;13513;42.700;23.124;2022-07-23T13:20:01;93097.84;;;36.03;20.76
10718;BME280;13513;42.700;23.124;2022-07-23T13:22:31;93104.28;;;35.61;19.47
10718;BME280;13513;42.700;23.124;2022-07-23T13:25:03;93102.48;;;35.66;18.58
10718;BME280;13513;42.700;23.124;2022-07-23T13:27:33;93091.05;;;35.85;22.40